Time;durP1;ratioP1;P1;durP2;ratioP2;P2;SDS_P1;SDS_P2;PMS_P1;PMS_P2;Temp;Humidity;BMP_temperature;BMP_pressure;BME280_temperature;BME280_humidity;BME280_pressure;Samples;Min_cycle;Max_cycle;Signal;HPM_P1;HPM_P2
2022/01/06 00:00:29;;;;;;;7.43;3.33;;;4.50;99.90;;;;;;5072984;28;20575;-61
2022/01/06 00:02:56;;;;;;;6.50;3.80;;;4.50;99.90;;;;;;5073416;28;20837;-61
2022/01/06 00:05:23;;;;;;;5.83;3.70;;;4.60;99.90;;;;;;5073086;28;20454;-61
2022/01/06 00:07:51;;;;;;;6.20;3.20;;;4.60;99.90;;;;;;5073396;28;20448;-62
2022/01/06 00:10:18;;;;;;;6.10;3.73;;;4.60;99.90;;;;;;5072984;28;20964;-62
2022/01/06 00:13:01;;;;;;;6.43;4.00;;;4.60;99.90;;;;;;5073037;28;20452;-62
2022/01/06 00:15:34;;;;;;;4.27;3.40;;;4.60;99.90;;;;;;5073034;28;20476;-62
2022/01/06 00:18:21;;;;;;;12.80;4.10;;;4.70;99.90;;;;;;5073075;28;20520;-62
2022/01/06 00:23:38;;;;;;;9.67;3.73;;;4.80;99.90;;;;;;5073007;28;20411;-62
2022/01/06 00:26:05;;;;;;;5.30;3.53;;;4.90;99.90;;;;;;5073191;28;20494;-62
2022/01/06 00:28:34;;;;;;;6.77;4.23;;;4.80;99.90;;;;;;5072849;28;20531;-62
2022/01/06 00:31:02;;;;;;;4.40;3.40;;;4.50;99.90;;;;;;5072893;28;20971;-62
2022/01/06 00:33:32;;;;;;;4.30;3.13;;;4.60;99.90;;;;;;5073149;28;20459;-63
2022/01/06 00:35:59;;;;;;;7.03;3.57;;;4.70;99.90;;;;;;5072833;28;20460;-64
2022/01/06 00:38:27;;;;;;;6.90;3.43;;;4.60;99.90;;;;;;5072863;28;20444;-62
2022/01/06 00:40:55;;;;;;;6.43;3.70;;;4.60;99.90;;;;;;5072895;28;20523;-61
2022/01/06 00:43:22;;;;;;;5.30;4.53;;;4.60;99.90;;;;;;5072990;28;20487;-62
2022/01/06 00:45:50;;;;;;;5.07;3.57;;;4.50;99.90;;;;;;5072806;28;20543;-62
2022/01/06 00:48:18;;;;;;;8.93;3.90;;;4.40;99.90;;;;;;5072974;28;20467;-62
2022/01/06 00:50:45;;;;;;;6.03;3.53;;;4.40;99.90;;;;;;5072843;28;20552;-62
2022/01/06 00:53:13;;;;;;;7.90;3.90;;;4.50;99.90;;;;;;5072773;28;20448;-62
2022/01/06 00:55:41;;;;;;;5.93;3.63;;;4.40;99.90;;;;;;5073038;28;20804;-62
2022/01/06 00:58:08;;;;;;;7.80;3.53;;;4.50;99.90;;;;;;5072869;28;20452;-62
2022/01/06 01:00:40;;;;;;;5.00;3.50;;;4.40;99.90;;;;;;5072644;28;20488;-61
2022/01/06 01:03:12;;;;;;;3.10;2.80;;;4.40;99.90;;;;;;5072683;28;20440;-62
2022/01/06 01:05:39;;;;;;;4.60;3.50;;;4.40;99.90;;;;;;5072467;28;20904;-62
2022/01/06 01:08:06;;;;;;;4.30;3.30;;;4.50;99.90;;;;;;5072472;28;20435;-62
2022/01/06 01:10:34;;;;;;;6.23;3.60;;;4.60;99.90;;;;;;5072557;28;20460;-61
2022/01/06 01:13:02;;;;;;;4.53;3.40;;;4.70;99.90;;;;;;5072733;28;20470;-62
2022/01/06 01:15:31;;;;;;;6.20;3.50;;;4.60;99.90;;;;;;5071303;28;20485;-61
2022/01/06 01:18:05;;;;;;;5.50;4.10;;;4.60;99.90;;;;;;5072832;28;20535;-61
2022/01/06 01:20:35;;;;;;;7.30;4.10;;;4.50;99.90;;;;;;5072438;28;20484;-62
2022/01/06 01:23:02;;;;;;;15.03;4.40;;;4.60;99.90;;;;;;5072400;28;20499;-61
2022/01/06 01:25:29;;;;;;;6.87;3.70;;;4.70;99.90;;;;;;5074234;28;20444;-62
2022/01/06 01:27:57;;;;;;;6.60;3.90;;;4.60;99.90;;;;;;5075885;28;20448;-61
2022/01/06 01:30:31;;;;;;;7.53;3.80;;;4.50;99.90;;;;;;5075619;28;20468;-62
2022/01/06 01:32:59;;;;;;;9.00;4.67;;;4.60;99.90;;;;;;5076056;28;20429;-61
2022/01/06 01:35:31;;;;;;;4.23;3.83;;;4.50;99.90;;;;;;5075891;28;20477;-62
2022/01/06 01:38:00;;;;;;;4.43;3.50;;;4.60;99.90;;;;;;5075756;28;20907;-62
2022/01/06 01:40:28;;;;;;;9.77;4.83;;;4.60;99.90;;;;;;5075736;28;20488;-61
2022/01/06 01:42:55;;;;;;;5.50;3.33;;;4.50;99.90;;;;;;5075471;28;20455;-62
2022/01/06 01:45:28;;;;;;;12.97;4.07;;;4.40;99.90;;;;;;5075647;28;20455;-62
2022/01/06 01:47:57;;;;;;;5.57;3.30;;;4.40;99.90;;;;;;5075741;28;20436;-61
2022/01/06 01:50:25;;;;;;;5.87;3.30;;;4.50;99.90;;;;;;5075418;28;20473;-62
2022/01/06 01:52:53;;;;;;;9.33;4.53;;;4.60;99.90;;;;;;5075755;28;20444;-62
2022/01/06 01:55:24;;;;;;;7.43;3.83;;;4.60;99.90;;;;;;5075593;28;20939;-62
2022/01/06 01:57:52;;;;;;;5.70;4.50;;;4.40;99.90;;;;;;5075368;28;20448;-62
2022/01/06 02:00:21;;;;;;;8.80;3.43;;;4.50;99.90;;;;;;5075058;28;20484;-61
2022/01/06 02:02:48;;;;;;;9.57;3.60;;;4.40;99.90;;;;;;5075425;28;20538;-62
2022/01/06 02:05:21;;;;;;;3.60;3.30;;;4.30;99.90;;;;;;5075396;28;20966;-62
2022/01/06 02:07:48;;;;;;;8.27;3.43;;;4.30;99.90;;;;;;5075239;28;20758;-61
2022/01/06 02:10:16;;;;;;;7.00;3.30;;;4.20;99.90;;;;;;5075085;28;20471;-62
2022/01/06 02:12:45;;;;;;;2.87;2.67;;;4.30;99.90;;;;;;5075222;28;20547;-62
2022/01/06 02:15:12;;;;;;;4.33;3.23;;;4.30;99.90;;;;;;5074820;28;21053;-62
2022/01/06 02:17:39;;;;;;;7.40;3.47;;;4.30;99.90;;;;;;5075305;28;20447;-61
2022/01/06 02:20:10;;;;;;;7.53;4.03;;;4.40;99.90;;;;;;5074884;28;20957;-61
2022/01/06 02:22:38;;;;;;;5.50;3.17;;;4.40;99.90;;;;;;5074945;28;20432;-62
2022/01/06 02:25:13;;;;;;;5.67;4.70;;;4.30;99.90;;;;;;5075152;28;20450;-62
2022/01/06 02:27:43;;;;;;;7.87;3.40;;;4.30;99.90;;;;;;5075028;28;20523;-62
2022/01/06 02:30:12;;;;;;;5.43;4.40;;;4.30;99.90;;;;;;5075042;28;20806;-62
2022/01/06 02:32:39;;;;;;;7.77;3.87;;;4.30;99.90;;;;;;5074786;28;20445;-62
2022/01/06 02:35:11;;;;;;;9.77;3.60;;;4.50;99.90;;;;;;5074964;28;20468;-61
2022/01/06 02:37:38;;;;;;;4.37;3.50;;;4.40;99.90;;;;;;5075262;28;20460;-62
2022/01/06 02:40:10;;;;;;;7.03;3.30;;;4.50;99.90;;;;;;5074756;28;20448;-62
2022/01/06 02:42:41;;;;;;;5.50;3.67;;;4.50;99.90;;;;;;5074683;28;20468;-61
2022/01/06 02:45:10;;;;;;;5.20;3.10;;;4.60;99.90;;;;;;5074379;28;20954;-61
2022/01/06 02:47:37;;;;;;;5.83;3.47;;;4.50;99.90;;;;;;5074541;28;20436;-61
2022/01/06 02:50:06;;;;;;;4.10;3.20;;;4.50;99.90;;;;;;5074245;28;20444;-62
2022/01/06 02:52:35;;;;;;;6.00;3.40;;;4.50;99.90;;;;;;5074637;28;20436;-62
2022/01/06 02:55:02;;;;;;;6.33;3.80;;;4.50;99.90;;;;;;5074334;28;20957;-62
2022/01/06 02:57:29;;;;;;;10.43;3.70;;;4.60;99.90;;;;;;5074203;28;20446;-61
2022/01/06 02:59:56;;;;;;;10.73;4.00;;;4.60;99.90;;;;;;5074309;28;20494;-61
2022/01/06 03:02:24;;;;;;;5.80;4.43;;;4.60;99.90;;;;;;5074209;28;20849;-62
2022/01/06 03:04:51;;;;;;;6.00;3.80;;;4.60;99.90;;;;;;5074062;28;20931;-62
2022/01/06 03:07:19;;;;;;;4.83;3.37;;;4.70;99.90;;;;;;5074514;28;20547;-62
2022/01/06 03:09:53;;;;;;;5.70;3.90;;;4.80;99.90;;;;;;5074374;28;20490;-62
2022/01/06 03:12:25;;;;;;;4.67;2.57;;;4.80;99.90;;;;;;5074452;28;20436;-62
2022/01/06 03:14:52;;;;;;;11.07;4.10;;;4.80;99.90;;;;;;5073737;28;20560;-61
2022/01/06 03:17:19;;;;;;;5.13;3.50;;;4.50;99.90;;;;;;5073797;28;20449;-61
2022/01/06 03:19:46;;;;;;;3.63;3.00;;;4.50;99.90;;;;;;5073886;28;20813;-61
2022/01/06 03:22:14;;;;;;;7.07;2.67;;;4.50;99.90;;;;;;5073631;28;20496;-61
2022/01/06 03:24:41;;;;;;;4.30;3.07;;;4.70;99.90;;;;;;5073975;28;20498;-61
2022/01/06 03:27:10;;;;;;;3.97;3.13;;;4.70;99.90;;;;;;5073747;28;20802;-61
2022/01/06 03:29:37;;;;;;;3.80;3.10;;;4.60;99.90;;;;;;5073640;28;20428;-62
2022/01/06 03:32:05;;;;;;;6.60;3.23;;;4.50;99.90;;;;;;5073801;28;20824;-62
2022/01/06 03:34:32;;;;;;;3.80;3.50;;;4.50;99.90;;;;;;5073648;28;20447;-62
2022/01/06 03:37:01;;;;;;;3.03;2.67;;;4.40;99.90;;;;;;5073990;28;20485;-62
2022/01/06 03:39:28;;;;;;;15.73;3.10;;;4.50;99.90;;;;;;5073713;28;20802;-61
2022/01/06 03:41:56;;;;;;;11.90;3.27;;;4.40;99.90;;;;;;5073256;28;20557;-62
2022/01/06 03:44:24;;;;;;;5.53;3.20;;;4.20;99.90;;;;;;5073815;28;20458;-61
2022/01/06 03:46:52;;;;;;;3.80;3.47;;;4.20;99.90;;;;;;5073241;28;20452;-62
2022/01/06 03:49:20;;;;;;;3.10;2.90;;;4.10;99.90;;;;;;5072925;28;20455;-61
2022/01/06 03:51:47;;;;;;;5.23;3.53;;;4.20;99.90;;;;;;5073642;28;20549;-62
2022/01/06 03:54:14;;;;;;;4.20;3.70;;;4.20;99.90;;;;;;5073568;28;20497;-62
2022/01/06 03:56:41;;;;;;;3.97;3.50;;;4.20;99.90;;;;;;5073515;28;20448;-62
2022/01/06 03:59:08;;;;;;;9.13;4.03;;;4.40;99.90;;;;;;5073523;28;20444;-62
2022/01/06 04:01:37;;;;;;;4.00;3.60;;;4.50;99.90;;;;;;5073028;28;20717;-62
2022/01/06 04:04:04;;;;;;;5.40;3.50;;;4.50;99.90;;;;;;5073121;28;20449;-62
2022/01/06 04:06:31;;;;;;;7.30;3.40;;;4.60;99.90;;;;;;5073605;28;20459;-62
2022/01/06 04:08:58;;;;;;;4.30;3.43;;;4.60;99.90;;;;;;5073055;28;20540;-61
2022/01/06 04:11:26;;;;;;;4.90;3.50;;;4.50;99.90;;;;;;5072987;28;20551;-61
2022/01/06 04:13:53;;;;;;;4.80;3.57;;;4.40;99.90;;;;;;5072904;28;20451;-62
2022/01/06 04:16:20;;;;;;;4.47;3.43;;;4.50;99.90;;;;;;5073282;28;20437;-62
2022/01/06 04:18:49;;;;;;;5.30;3.83;;;4.50;99.90;;;;;;5073235;28;20538;-62
2022/01/06 04:21:16;;;;;;;6.00;3.10;;;4.50;99.90;;;;;;5073251;28;20834;-62
2022/01/06 04:23:47;;;;;;;10.10;3.57;;;4.50;99.90;;;;;;5072923;28;20540;-61
2022/01/06 04:26:14;;;;;;;4.30;3.40;;;4.60;99.90;;;;;;5073264;28;20432;-62
2022/01/06 04:28:41;;;;;;;6.43;3.70;;;4.60;99.90;;;;;;5073175;28;20449;-62
2022/01/06 04:31:08;;;;;;;4.30;3.30;;;4.50;99.90;;;;;;5072900;28;21024;-62
2022/01/06 04:33:36;;;;;;;7.23;3.77;;;4.50;99.90;;;;;;5072821;28;20810;-62
2022/01/06 04:36:05;;;;;;;3.63;3.33;;;4.50;99.90;;;;;;5073088;28;20452;-62
2022/01/06 04:38:33;;;;;;;3.80;2.97;;;4.60;99.90;;;;;;5073231;28;20444;-61
2022/01/06 04:41:00;;;;;;;6.90;4.20;;;4.40;99.90;;;;;;5072609;28;20472;-62
2022/01/06 04:43:27;;;;;;;4.80;3.27;;;4.50;99.90;;;;;;5073027;28;20444;-61
2022/01/06 04:45:55;;;;;;;5.10;3.27;;;4.40;99.90;;;;;;5072861;28;20449;-61
2022/01/06 04:48:22;;;;;;;11.40;3.77;;;4.50;99.90;;;;;;5072765;28;20437;-61
2022/01/06 04:50:49;;;;;;;4.80;3.43;;;4.50;99.90;;;;;;5072923;28;20555;-62
2022/01/06 04:53:17;;;;;;;4.10;3.47;;;4.50;99.90;;;;;;5073079;28;20446;-62
2022/01/06 04:55:45;;;;;;;5.93;3.87;;;4.50;99.90;;;;;;5072963;28;20784;-61
2022/01/06 04:58:12;;;;;;;6.97;3.50;;;4.60;99.90;;;;;;5072936;28;20452;-61
2022/01/06 05:00:39;;;;;;;7.97;3.70;;;4.50;99.90;;;;;;5076571;28;20475;-62
2022/01/06 05:03:06;;;;;;;5.73;3.57;;;4.50;99.90;;;;;;5076352;28;20480;-62
2022/01/06 05:05:33;;;;;;;5.77;4.80;;;4.60;99.90;;;;;;5076321;28;20452;-61
2022/01/06 05:08:01;;;;;;;6.17;3.87;;;4.70;99.90;;;;;;5076479;28;20917;-61
2022/01/06 05:10:29;;;;;;;4.73;4.10;;;4.60;99.90;;;;;;5076519;28;20479;-62
2022/01/06 05:12:56;;;;;;;3.93;3.53;;;4.60;99.90;;;;;;5076255;28;20456;-62
2022/01/06 05:15:23;;;;;;;4.20;3.73;;;4.70;99.90;;;;;;5076217;28;20568;-62
2022/01/06 05:17:50;;;;;;;3.33;2.83;;;4.70;99.90;;;;;;5076262;28;20444;-62
2022/01/06 05:20:20;;;;;;;3.70;3.40;;;4.70;99.90;;;;;;5076103;28;20823;-62
2022/01/06 05:22:47;;;;;;;7.00;3.50;;;4.70;99.90;;;;;;5076239;28;20491;-61
2022/01/06 05:25:15;;;;;;;6.13;3.57;;;4.70;99.90;;;;;;5076402;28;20455;-60
2022/01/06 05:27:43;;;;;;;5.40;4.33;;;4.50;99.90;;;;;;5075935;28;20448;-61
2022/01/06 05:30:11;;;;;;;3.97;3.33;;;4.50;99.90;;;;;;5076060;28;20491;-61
2022/01/06 05:32:38;;;;;;;3.17;2.80;;;4.40;99.90;;;;;;5076062;28;20440;-62
2022/01/06 05:35:06;;;;;;;3.67;3.40;;;4.40;99.90;;;;;;5075846;28;20454;-62
2022/01/06 05:37:33;;;;;;;5.20;3.00;;;4.30;99.90;;;;;;5076192;28;20914;-60
2022/01/06 05:40:00;;;;;;;3.40;3.13;;;4.30;99.90;;;;;;5076068;28;20444;-61
2022/01/06 05:42:27;;;;;;;3.80;3.40;;;4.30;99.90;;;;;;5075902;28;20488;-61
2022/01/06 05:44:56;;;;;;;5.43;3.10;;;4.40;99.90;;;;;;5075921;28;20452;-62
2022/01/06 05:47:23;;;;;;;12.37;4.17;;;4.30;99.90;;;;;;5075748;28;20450;-62
2022/01/06 05:49:50;;;;;;;5.70;3.13;;;4.30;99.90;;;;;;5075866;28;20528;-61
2022/01/06 05:52:17;;;;;;;6.67;3.33;;;4.30;99.90;;;;;;5075388;28;20468;-61
2022/01/06 05:54:44;;;;;;;6.77;3.83;;;4.30;99.90;;;;;;5075852;28;20445;-62
2022/01/06 05:57:13;;;;;;;2.87;2.67;;;4.30;99.90;;;;;;5075751;28;20451;-62
2022/01/06 05:59:40;;;;;;;5.03;3.10;;;4.40;99.90;;;;;;5075297;28;20448;-62
2022/01/06 06:02:09;;;;;;;5.47;2.90;;;4.40;99.90;;;;;;5075657;28;20515;-62
2022/01/06 06:04:36;;;;;;;5.37;3.30;;;4.40;99.90;;;;;;5076031;28;20542;-62
2022/01/06 06:07:03;;;;;;;5.80;3.00;;;4.50;99.90;;;;;;5075489;28;20456;-62
2022/01/06 06:09:30;;;;;;;4.27;3.60;;;4.50;99.90;;;;;;5075485;28;20453;-62
2022/01/06 06:11:58;;;;;;;5.70;3.57;;;4.60;99.90;;;;;;5074625;28;20464;-62
2022/01/06 06:14:25;;;;;;;4.90;3.00;;;4.40;99.90;;;;;;5075096;28;20472;-62
2022/01/06 06:16:52;;;;;;;6.03;3.33;;;4.50;99.90;;;;;;5075381;28;20853;-62
2022/01/06 06:19:20;;;;;;;9.43;3.90;;;4.40;99.90;;;;;;5075430;28;20448;-62
2022/01/06 06:21:47;;;;;;;11.60;4.23;;;4.50;99.90;;;;;;5075101;28;20511;-62
2022/01/06 06:24:14;;;;;;;3.97;3.67;;;4.50;99.90;;;;;;5074885;28;20951;-63
2022/01/06 06:26:42;;;;;;;5.10;3.47;;;4.50;99.90;;;;;;5075050;28;20871;-62
2022/01/06 06:29:09;;;;;;;6.40;3.37;;;4.60;99.90;;;;;;5074934;28;20535;-62
2022/01/06 06:31:36;;;;;;;7.33;3.73;;;4.50;99.90;;;;;;5074675;28;20981;-62
2022/01/06 06:34:04;;;;;;;7.23;3.87;;;4.50;99.90;;;;;;5074840;28;20444;-63
2022/01/06 06:36:32;;;;;;;4.30;4.00;;;4.40;99.90;;;;;;5074987;28;20486;-62
2022/01/06 06:38:59;;;;;;;5.13;3.17;;;4.50;99.90;;;;;;5074608;28;20445;-61
2022/01/06 06:41:26;;;;;;;6.67;4.27;;;4.40;99.90;;;;;;5074625;28;20997;-61
2022/01/06 06:43:53;;;;;;;3.80;2.80;;;4.50;99.90;;;;;;5074806;28;20444;-61
2022/01/06 06:46:21;;;;;;;5.37;3.80;;;4.50;99.90;;;;;;5074776;28;20454;-61
2022/01/06 06:48:48;;;;;;;13.00;3.77;;;4.50;99.90;;;;;;5074573;28;20941;-61
2022/01/06 06:51:15;;;;;;;9.63;3.90;;;4.50;99.90;;;;;;5074560;28;20914;-61
2022/01/06 06:53:44;;;;;;;4.50;3.67;;;4.50;99.90;;;;;;5074678;28;20451;-61
2022/01/06 06:56:11;;;;;;;5.23;3.33;;;4.50;99.90;;;;;;5074318;28;20535;-61
2022/01/06 06:58:38;;;;;;;3.57;3.27;;;4.60;99.90;;;;;;5074119;28;20439;-61
2022/01/06 07:01:05;;;;;;;4.13;3.60;;;4.40;99.90;;;;;;5073984;28;20466;-61
2022/01/06 07:03:32;;;;;;;4.17;3.77;;;4.30;99.90;;;;;;5074446;28;20488;-61
2022/01/06 07:06:00;;;;;;;5.53;3.63;;;4.30;99.90;;;;;;5074381;28;20466;-61
2022/01/06 07:08:27;;;;;;;4.90;4.37;;;4.30;99.90;;;;;;5074325;28;20939;-62
2022/01/06 07:10:55;;;;;;;4.67;3.70;;;4.40;99.90;;;;;;5074362;28;20553;-61
2022/01/06 07:13:22;;;;;;;6.07;3.60;;;4.50;99.90;;;;;;5074033;28;20452;-62
2022/01/06 07:15:50;;;;;;;5.23;3.10;;;4.40;99.90;;;;;;5073689;28;20824;-62
2022/01/06 07:18:17;;;;;;;4.77;3.53;;;4.40;99.90;;;;;;5073815;28;20959;-62
2022/01/06 07:20:44;;;;;;;5.27;3.57;;;4.40;99.90;;;;;;5073846;28;21020;-61
2022/01/06 07:23:11;;;;;;;6.97;3.13;;;4.50;99.90;;;;;;5073132;28;20892;-62
2022/01/06 07:25:38;;;;;;;5.67;3.53;;;4.60;99.90;;;;;;5074001;28;20654;-62
2022/01/06 07:28:07;;;;;;;3.90;3.50;;;4.60;99.90;;;;;;5073716;28;20444;-62
2022/01/06 07:30:34;;;;;;;10.53;3.53;;;4.70;99.90;;;;;;5073474;28;20465;-64
2022/01/06 07:33:02;;;;;;;6.00;4.43;;;4.80;99.90;;;;;;5073562;28;20445;-62
2022/01/06 07:35:29;;;;;;;9.47;3.60;;;4.60;99.90;;;;;;5073576;28;20445;-62
2022/01/06 07:37:56;;;;;;;3.60;3.30;;;4.60;99.90;;;;;;5073820;28;20445;-61
2022/01/06 07:40:24;;;;;;;9.03;4.13;;;4.60;99.90;;;;;;5073589;28;20491;-62
2022/01/06 07:42:51;;;;;;;7.03;3.23;;;4.50;99.90;;;;;;5073769;28;20480;-62
2022/01/06 07:45:20;;;;;;;11.27;4.20;;;4.60;99.90;;;;;;5073620;28;20539;-62
2022/01/06 07:47:55;;;;;;;4.73;3.30;;;4.70;99.90;;;;;;5073290;28;20931;-62
2022/01/06 07:50:23;;;;;;;5.23;3.60;;;4.70;99.90;;;;;;5073557;28;20892;-62
2022/01/06 07:52:50;;;;;;;6.63;3.40;;;4.80;99.90;;;;;;5073369;28;20955;-61
2022/01/06 07:55:17;;;;;;;7.67;3.57;;;4.70;99.90;;;;;;5073539;28;20440;-61
2022/01/06 07:57:45;;;;;;;5.87;3.70;;;4.60;99.90;;;;;;5073464;28;20444;-62
2022/01/06 08:00:13;;;;;;;12.87;4.70;;;4.50;99.90;;;;;;5073496;28;20523;-61
2022/01/06 08:02:41;;;;;;;5.87;3.47;;;4.50;99.90;;;;;;5073102;28;20484;-61
2022/01/06 08:05:12;;;;;;;12.50;3.93;;;4.40;99.90;;;;;;5073384;28;20450;-61
2022/01/06 08:07:39;;;;;;;4.53;3.70;;;4.40;99.90;;;;;;5073695;28;20456;-61
2022/01/06 08:10:08;;;;;;;3.97;3.20;;;4.30;99.90;;;;;;5072979;28;20952;-61
2022/01/06 08:12:36;;;;;;;7.40;3.53;;;4.30;99.90;;;;;;5073020;28;20965;-62
2022/01/06 08:15:04;;;;;;;9.50;4.27;;;4.30;99.90;;;;;;5072917;28;20959;-62
2022/01/06 08:17:31;;;;;;;5.87;3.53;;;4.30;99.90;;;;;;5073379;28;20535;-61
2022/01/06 08:20:05;;;;;;;8.40;3.53;;;4.40;99.90;;;;;;5073235;28;20471;-61
2022/01/06 08:22:32;;;;;;;4.73;3.60;;;4.30;99.90;;;;;;5073089;28;20486;-61
2022/01/06 08:24:59;;;;;;;11.80;4.13;;;4.30;99.90;;;;;;5073030;28;20444;-62
2022/01/06 08:27:26;;;;;;;6.57;5.00;;;4.30;99.90;;;;;;5072706;28;20445;-62
2022/01/06 08:29:54;;;;;;;6.40;3.13;;;4.40;99.90;;;;;;5072916;28;20750;-62
2022/01/06 08:32:21;;;;;;;4.50;3.67;;;4.40;99.90;;;;;;5072875;28;20943;-61
2022/01/06 08:34:48;;;;;;;5.87;3.70;;;4.40;99.90;;;;;;5075532;28;20455;-62
2022/01/06 08:37:17;;;;;;;4.90;3.97;;;4.30;99.90;;;;;;5077326;28;20456;-61
2022/01/06 08:39:45;;;;;;;7.30;3.50;;;4.40;99.90;;;;;;5077257;28;20483;-61
2022/01/06 08:42:12;;;;;;;5.47;4.40;;;4.50;99.90;;;;;;5076667;28;20970;-61
2022/01/06 08:44:41;;;;;;;6.40;3.53;;;4.60;99.90;;;;;;5077090;28;20903;-62
2022/01/06 08:47:09;;;;;;;5.40;3.47;;;4.80;99.90;;;;;;5077210;28;20815;-62
2022/01/06 08:49:36;;;;;;;9.90;3.60;;;4.90;99.90;;;;;;5077114;28;20449;-62
2022/01/06 08:52:05;;;;;;;11.23;4.50;;;4.80;99.90;;;;;;5076875;28;20494;-62
2022/01/06 08:54:33;;;;;;;8.57;3.90;;;4.80;99.90;;;;;;5076827;28;20441;-62
2022/01/06 08:57:01;;;;;;;7.37;3.40;;;4.80;99.90;;;;;;5076740;28;20439;-62
2022/01/06 08:59:28;;;;;;;5.70;3.73;;;4.70;99.90;;;;;;5076721;28;20463;-62
2022/01/06 09:01:55;;;;;;;9.63;4.47;;;4.60;99.90;;;;;;5076579;28;20464;-62
2022/01/06 09:04:25;;;;;;;11.17;4.63;;;4.70;99.90;;;;;;5076399;28;20562;-62
2022/01/06 09:06:53;;;;;;;6.30;4.00;;;4.70;99.90;;;;;;5076607;28;20458;-62
2022/01/06 09:09:21;;;;;;;8.43;4.40;;;4.60;99.90;;;;;;5076483;28;20531;-62
2022/01/06 09:11:49;;;;;;;6.57;4.50;;;4.70;99.90;;;;;;5076614;28;20472;-61
2022/01/06 09:14:17;;;;;;;5.80;4.10;;;4.70;99.90;;;;;;5076179;28;20867;-61
2022/01/06 09:16:44;;;;;;;19.47;5.00;;;4.60;99.90;;;;;;5076350;28;20455;-62
2022/01/06 09:19:12;;;;;;;11.07;5.00;;;4.60;99.90;;;;;;5076072;28;20547;-63
2022/01/06 09:21:40;;;;;;;5.53;4.17;;;4.60;99.90;;;;;;5076192;28;20997;-61
2022/01/06 09:24:07;;;;;;;13.83;4.60;;;4.80;99.90;;;;;;5075819;28;20482;-63
2022/01/06 09:26:36;;;;;;;6.93;4.57;;;4.70;99.90;;;;;;5076083;28;20454;-61
2022/01/06 09:29:07;;;;;;;7.43;4.70;;;4.90;99.90;;;;;;5076356;28;20535;-61
2022/01/06 09:31:36;;;;;;;6.60;3.77;;;4.90;99.90;;;;;;5075744;28;20550;-62
2022/01/06 09:34:04;;;;;;;4.03;3.70;;;4.90;99.90;;;;;;5075714;28;20444;-61
2022/01/06 09:36:31;;;;;;;5.20;4.57;;;5.00;99.90;;;;;;5075774;28;20456;-61
2022/01/06 09:39:00;;;;;;;9.10;4.17;;;5.10;99.90;;;;;;5075712;28;20889;-61
2022/01/06 09:41:29;;;;;;;5.70;4.03;;;5.00;99.90;;;;;;5075847;28;20476;-61
2022/01/06 09:43:56;;;;;;;11.27;6.03;;;5.10;99.90;;;;;;5075970;28;20480;-61
2022/01/06 09:46:26;;;;;;;6.10;4.47;;;5.20;99.90;;;;;;5074880;28;20543;-61
2022/01/06 09:48:57;;;;;;;10.93;4.33;;;5.10;99.90;;;;;;5075540;28;20448;-61
2022/01/06 09:51:25;;;;;;;7.37;3.63;;;5.10;99.90;;;;;;5075791;28;20460;-61
2022/01/06 09:53:55;;;;;;;4.07;3.70;;;5.40;99.90;;;;;;5075725;28;20534;-61
2022/01/06 09:56:22;;;;;;;3.73;3.33;;;5.50;99.90;;;;;;5075324;28;20923;-62
2022/01/06 09:58:50;;;;;;;6.57;4.13;;;5.80;99.90;;;;;;5075385;28;20459;-62
2022/01/06 10:01:17;;;;;;;6.00;3.67;;;5.80;99.90;;;;;;5075523;28;20558;-62
2022/01/06 10:03:48;;;;;;;6.47;3.93;;;5.80;99.90;;;;;;5075192;28;21020;-62
2022/01/06 10:06:17;;;;;;;3.60;3.30;;;5.80;99.90;;;;;;5075285;28;20460;-62
2022/01/06 10:08:51;;;;;;;5.27;3.40;;;6.00;99.90;;;;;;5075280;28;20961;-61
2022/01/06 10:11:21;;;;;;;5.83;3.63;;;6.00;99.90;;;;;;5075199;28;20833;-62
2022/01/06 10:13:56;;;;;;;8.07;4.77;;;6.00;99.90;;;;;;5074873;28;20531;-62
2022/01/06 10:16:24;;;;;;;4.93;3.17;;;5.90;99.90;;;;;;5075312;28;20440;-61
2022/01/06 10:19:11;;;;;;;8.60;4.20;;;5.40;99.90;;;;;;5075049;28;20923;-61
2022/01/06 10:21:40;;;;;;;6.33;3.87;;;5.40;99.90;;;;;;5075054;28;20978;-61
2022/01/06 10:24:10;;;;;;;5.80;3.40;;;5.50;99.90;;;;;;5074940;28;20480;-61
2022/01/06 10:26:50;;;;;;;9.63;3.93;;;5.60;99.90;;;;;;5074722;28;20785;-61
2022/01/06 10:29:19;;;;;;;4.70;3.70;;;5.50;99.90;;;;;;5073655;28;20800;-61
2022/01/06 10:31:47;;;;;;;7.63;3.30;;;5.50;99.90;;;;;;5074998;28;20468;-61
2022/01/06 10:34:15;;;;;;;7.40;4.27;;;5.90;99.90;;;;;;5075040;28;20799;-61
2022/01/06 10:36:43;;;;;;;10.37;3.20;;;5.70;99.90;;;;;;5074554;28;20959;-61
2022/01/06 10:39:11;;;;;;;3.33;3.00;;;5.60;99.90;;;;;;5074892;28;20531;-61
2022/01/06 10:41:39;;;;;;;11.43;4.20;;;5.60;99.90;;;;;;5074651;28;20975;-61
2022/01/06 10:44:10;;;;;;;6.60;3.33;;;5.30;99.90;;;;;;5074695;28;20502;-61
2022/01/06 10:46:39;;;;;;;5.33;3.60;;;5.30;99.90;;;;;;5074461;28;20429;-61
2022/01/06 10:49:08;;;;;;;5.60;3.40;;;5.40;99.90;;;;;;5074393;28;20953;-61
2022/01/06 10:51:40;;;;;;;7.17;3.77;;;5.70;99.90;;;;;;5074965;28;20832;-61
2022/01/06 10:54:14;;;;;;;7.30;3.23;;;5.90;99.90;;;;;;5074254;28;20528;-61
2022/01/06 10:56:41;;;;;;;6.80;4.03;;;5.80;99.90;;;;;;5074452;28;20778;-61
2022/01/06 10:59:08;;;;;;;5.73;3.60;;;6.10;99.90;;;;;;5074596;28;20445;-60
2022/01/06 11:01:36;;;;;;;12.83;4.27;;;6.40;99.90;;;;;;5074079;28;20922;-62
2022/01/06 11:04:04;;;;;;;6.83;4.33;;;6.40;99.90;;;;;;5074335;28;20480;-63
2022/01/06 11:06:32;;;;;;;12.73;3.73;;;6.30;99.90;;;;;;5074070;28;20449;-62
2022/01/06 11:09:01;;;;;;;4.33;2.90;;;6.30;99.90;;;;;;5074163;28;20947;-62
2022/01/06 11:11:44;;;;;;;7.63;3.20;;;;;;;;;;5074190;28;20896;-61
2022/01/06 11:14:17;;;;;;;5.90;2.70;;;7.00;99.90;;;;;;5073356;28;20476;-62
2022/01/06 11:16:44;;;;;;;4.30;2.80;;;8.00;99.90;;;;;;5074154;28;20856;-61
2022/01/06 11:19:13;;;;;;;8.03;3.03;;;;;;;;;;5074315;28;20539;-63
2022/01/06 11:21:42;;;;;;;5.40;3.57;;;9.80;99.90;;;;;;5073596;28;20473;-63
2022/01/06 11:24:15;;;;;;;9.43;3.27;;;10.10;99.90;;;;;;5073672;28;20472;-61
2022/01/06 11:26:44;;;;;;;3.20;2.77;;;9.60;99.90;;;;;;5073610;28;20428;-62
2022/01/06 11:29:13;;;;;;;5.83;2.90;;;9.00;99.90;;;;;;5073764;28;20433;-62
2022/01/06 11:31:43;;;;;;;9.57;3.73;;;8.00;99.90;;;;;;5073423;28;20993;-62
2022/01/06 11:34:15;;;;;;;8.60;2.97;;;7.80;99.90;;;;;;5073587;28;20940;-62
2022/01/06 11:36:43;;;;;;;10.17;2.97;;;7.40;99.90;;;;;;5073793;28;20466;-64
2022/01/06 11:39:23;;;;;;;8.50;2.93;;;6.80;99.90;;;;;;5073501;28;20459;-62
2022/01/06 11:41:52;;;;;;;7.27;4.20;;;6.60;99.90;;;;;;5073336;28;21018;-62
2022/01/06 11:44:21;;;;;;;11.20;3.93;;;6.20;99.90;;;;;;5073382;28;20489;-62
2022/01/06 11:46:51;;;;;;;6.43;3.00;;;6.00;99.90;;;;;;5073750;28;20444;-62
2022/01/06 11:49:32;;;;;;;3.50;3.10;;;6.30;99.90;;;;;;5073811;28;20535;-62
2022/01/06 11:52:11;;;;;;;3.50;2.70;;;6.40;99.90;;;;;;5073172;28;20994;-62
2022/01/06 11:54:50;;;;;;;10.13;3.47;;;6.40;99.90;;;;;;5073186;28;20535;-62
2022/01/06 11:57:32;;;;;;;5.30;3.00;;;6.50;99.90;;;;;;5073435;28;20432;-62
2022/01/06 12:00:00;;;;;;;5.43;3.60;;;6.80;99.90;;;;;;5073401;28;20511;-62
2022/01/06 12:02:27;;;;;;;7.83;3.60;;;6.30;99.90;;;;;;5073504;28;20535;-62
2022/01/06 12:04:59;;;;;;;5.47;2.93;;;6.80;99.90;;;;;;5073412;28;20484;-62
2022/01/06 12:07:27;;;;;;;5.50;3.27;;;7.10;99.90;;;;;;5073349;28;20482;-62
2022/01/06 12:10:03;;;;;;;8.10;3.50;;;7.50;99.90;;;;;;5072767;28;20539;-61
2022/01/06 12:12:34;;;;;;;5.37;3.20;;;7.40;99.90;;;;;;5073694;28;20505;-62
2022/01/06 12:15:10;;;;;;;7.30;3.50;;;7.50;99.90;;;;;;5072983;28;20571;-61
2022/01/06 12:17:37;;;;;;;5.17;2.80;;;6.90;99.90;;;;;;5073280;28;20448;-61
2022/01/06 12:20:06;;;;;;;2.93;2.50;;;6.70;99.90;;;;;;5072906;28;20458;-61
2022/01/06 12:22:33;;;;;;;3.80;3.00;;;6.80;99.90;;;;;;5073102;28;20452;-62
2022/01/06 12:25:03;;;;;;;6.70;3.30;;;6.80;99.90;;;;;;5073286;28;20482;-61
2022/01/06 12:27:31;;;;;;;7.53;2.57;;;6.90;99.90;;;;;;5073542;28;20452;-61
2022/01/06 12:29:59;;;;;;;5.77;3.20;;;6.90;99.90;;;;;;5072829;28;20534;-61
2022/01/06 12:32:26;;;;;;;7.33;2.90;;;6.50;99.90;;;;;;5073274;28;20806;-61
2022/01/06 12:34:54;;;;;;;8.93;3.20;;;6.20;99.90;;;;;;5072752;28;20776;-61
2022/01/06 12:37:28;;;;;;;4.53;3.83;;;5.90;99.90;;;;;;5072695;28;20887;-62
2022/01/06 12:39:56;;;;;;;5.47;2.93;;;5.60;99.90;;;;;;5073136;28;20800;-61
2022/01/06 12:42:25;;;;;;;5.37;2.97;;;5.60;99.90;;;;;;5073549;28;20453;-62
2022/01/06 12:44:53;;;;;;;6.70;3.47;;;5.60;99.90;;;;;;5072614;28;20577;-62
2022/01/06 12:47:20;;;;;;;3.77;3.43;;;5.70;99.90;;;;;;5073163;28;20555;-62
2022/01/06 12:49:47;;;;;;;7.43;3.73;;;5.60;99.90;;;;;;5072977;28;20445;-62
2022/01/06 12:52:15;;;;;;;5.27;3.13;;;5.60;99.90;;;;;;5072877;28;20552;-62
2022/01/06 12:54:43;;;;;;;5.10;3.43;;;5.60;99.90;;;;;;5072924;28;20526;-62
2022/01/06 12:57:13;;;;;;;8.40;3.73;;;5.90;99.90;;;;;;5072691;28;20527;-62
2022/01/06 12:59:45;;;;;;;8.57;3.70;;;6.50;99.90;;;;;;5072568;28;20448;-62
2022/01/06 13:02:15;;;;;;;6.00;3.37;;;6.70;99.90;;;;;;5072493;28;20967;-62
2022/01/06 13:04:45;;;;;;;7.87;3.20;;;7.10;99.90;;;;;;5072973;28;20476;-62
2022/01/06 13:07:14;;;;;;;4.67;2.80;;;7.40;99.90;;;;;;5073000;28;20456;-62